Lincoln, Nebraska
Current Conditions -  °F | °C
As of 7:54 PM on Saturday 25 Oct 2014 (Local Time) from KLNK Reporting Station
Clear Clear  
Wind Chill: 57°   Ceiling: Unl
Heat Index: 57°   Visibility: 10mi
Dew Point: 44°   Wind: 7mph
Humidity: 62%   Direction: 60°ENE
Pressure: 30.03"   Gusts: NA
Location:  40.81°N, 96.71°W
Report Text: KLNK 260054Z 06006KT 10SM CLR 14/07 A3003 RMK AO2 SLP168 T01390067
Loading
Personal Weather Stations






























Interactive Weather Map
Tropical Storm Tracking
New forecast layout! Learn more

10-Day Weather Forecast

Advertisements
Track Severe Weather on mobile